createdAt,value
2018-04-14T00:00:09.999Z,991.00
2018-04-14T00:01:10.195Z,991.02
2018-04-14T00:02:10.378Z,990.98
2018-04-14T00:03:10.548Z,990.98
2018-04-14T00:04:10.729Z,991.04
2018-04-14T00:05:10.908Z,991.05
2018-04-14T00:06:11.083Z,991.07
2018-04-14T00:07:11.264Z,991.05
2018-04-14T00:08:11.445Z,991.14
2018-04-14T00:09:11.637Z,991.14
2018-04-14T00:10:11.813Z,991.13
2018-04-14T00:11:11.984Z,991.15
2018-04-14T00:12:12.161Z,991.13
2018-04-14T00:13:12.338Z,991.19
2018-04-14T00:14:12.522Z,991.17
2018-04-14T00:15:12.708Z,991.18
2018-04-14T00:16:12.886Z,991.22
2018-04-14T00:17:13.056Z,991.24
2018-04-14T00:18:13.235Z,991.24
2018-04-14T00:19:13.406Z,991.28
2018-04-14T00:20:13.601Z,991.32
2018-04-14T00:21:13.797Z,991.31
2018-04-14T00:22:13.988Z,991.33
2018-04-14T00:23:14.180Z,991.36
2018-04-14T00:24:14.359Z,991.36
2018-04-14T00:25:14.541Z,991.40
2018-04-14T00:26:14.719Z,991.40
2018-04-14T00:27:14.901Z,991.43
2018-04-14T00:28:15.073Z,991.44
2018-04-14T00:29:15.272Z,991.39
2018-04-14T00:30:15.456Z,991.46
2018-04-14T00:31:15.636Z,991.43
2018-04-14T00:32:15.809Z,991.40
2018-04-14T00:33:15.986Z,991.42
2018-04-14T00:34:16.159Z,991.43
2018-04-14T00:35:16.341Z,991.45
2018-04-14T00:36:16.516Z,991.43
2018-04-14T00:37:16.680Z,991.42
2018-04-14T00:38:16.859Z,991.43
2018-04-14T00:39:17.033Z,991.41
2018-04-14T00:40:17.212Z,991.44
2018-04-14T00:41:17.377Z,991.42
2018-04-14T00:42:17.555Z,991.46
2018-04-14T00:43:17.726Z,991.41
2018-04-14T00:44:17.904Z,991.47
2018-04-14T00:45:18.086Z,991.44
2018-04-14T00:46:18.264Z,991.46
2018-04-14T00:47:18.442Z,991.43
2018-04-14T00:48:18.624Z,991.47
2018-04-14T00:49:18.797Z,991.50
2018-04-14T00:50:18.977Z,991.46
2018-04-14T00:51:19.155Z,991.48
2018-04-14T00:52:19.341Z,991.44
2018-04-14T00:53:19.519Z,991.47
2018-04-14T00:54:19.699Z,991.49
2018-04-14T00:55:19.877Z,991.49
2018-04-14T00:56:20.053Z,991.51
2018-04-14T00:57:20.222Z,991.53
2018-04-14T00:58:20.402Z,991.54
2018-04-14T00:59:20.588Z,991.55
2018-04-14T01:00:20.772Z,991.51
2018-04-14T01:01:20.940Z,991.53
2018-04-14T01:02:21.120Z,991.52
2018-04-14T01:03:21.298Z,991.54
2018-04-14T01:04:21.476Z,991.54
2018-04-14T01:05:21.654Z,991.51
2018-04-14T01:06:21.827Z,991.52
2018-04-14T01:07:22.007Z,991.51
2018-04-14T01:08:22.190Z,991.52
2018-04-14T01:09:22.368Z,991.53
2018-04-14T01:10:22.543Z,991.54
2018-04-14T01:11:22.728Z,991.54
2018-04-14T01:12:22.904Z,991.54
2018-04-14T01:13:23.073Z,991.57
2018-04-14T01:14:23.265Z,991.58
2018-04-14T01:15:23.439Z,991.60
2018-04-14T01:16:23.615Z,991.61
2018-04-14T01:17:23.789Z,991.63
2018-04-14T01:18:23.971Z,991.65
2018-04-14T01:19:24.145Z,991.64
2018-04-14T01:20:24.313Z,991.63
2018-04-14T01:21:24.487Z,991.66
2018-04-14T01:22:24.661Z,991.66
2018-04-14T01:23:24.839Z,991.61
2018-04-14T01:24:25.017Z,991.66
2018-04-14T01:25:25.190Z,991.64
2018-04-14T01:26:25.367Z,991.61
2018-04-14T01:27:25.548Z,991.62
2018-04-14T01:28:25.716Z,991.65
2018-04-14T01:29:25.888Z,991.67
2018-04-14T01:30:26.067Z,991.67
2018-04-14T01:31:26.236Z,991.70
2018-04-14T01:32:26.446Z,991.69
2018-04-14T01:33:26.598Z,991.69
2018-04-14T01:34:26.772Z,991.71
2018-04-14T01:35:26.949Z,991.71
2018-04-14T01:36:27.126Z,991.71
2018-04-14T01:37:27.300Z,991.72
2018-04-14T01:38:27.465Z,991.68
2018-04-14T01:39:27.648Z,991.68
2018-04-14T01:40:27.824Z,991.69
2018-04-14T01:41:28.001Z,991.68
2018-04-14T01:42:28.171Z,991.65
2018-04-14T01:43:28.352Z,991.67
2018-04-14T01:44:28.533Z,991.69
2018-04-14T01:45:28.707Z,991.66
2018-04-14T01:46:28.882Z,991.67
2018-04-14T01:47:29.058Z,991.70
2018-04-14T01:48:29.244Z,991.65
2018-04-14T01:49:29.423Z,991.66
2018-04-14T01:50:29.606Z,991.67
2018-04-14T01:51:29.777Z,991.68
2018-04-14T01:52:29.946Z,991.62
2018-04-14T01:53:30.120Z,991.60
2018-04-14T01:54:30.295Z,991.67
2018-04-14T01:55:30.470Z,991.68
2018-04-14T01:56:30.649Z,991.73
2018-04-14T01:57:30.826Z,991.71
2018-04-14T01:58:31.003Z,991.70
2018-04-14T01:59:31.178Z,991.72
2018-04-14T02:00:31.360Z,991.74
2018-04-14T02:01:31.533Z,991.74
2018-04-14T02:02:31.711Z,991.74
2018-04-14T02:03:31.890Z,991.78
2018-04-14T02:04:32.066Z,991.77
2018-04-14T02:05:32.236Z,991.77
2018-04-14T02:06:32.410Z,991.77
2018-04-14T02:07:32.587Z,991.76
2018-04-14T02:08:32.758Z,991.77
2018-04-14T02:09:32.932Z,991.80
2018-04-14T02:10:33.106Z,991.77
2018-04-14T02:11:33.288Z,991.77
2018-04-14T02:12:33.473Z,991.80
2018-04-14T02:13:33.642Z,991.80
2018-04-14T02:14:33.813Z,991.79
2018-04-14T02:15:33.991Z,991.80
2018-04-14T02:16:34.161Z,991.80
2018-04-14T02:17:34.331Z,991.78
2018-04-14T02:18:34.509Z,991.77
2018-04-14T02:19:34.678Z,991.78
2018-04-14T02:20:34.855Z,991.76
2018-04-14T02:21:35.034Z,991.76
2018-04-14T02:22:35.207Z,991.78
2018-04-14T02:23:35.387Z,991.74
2018-04-14T02:24:35.566Z,991.73
2018-04-14T02:25:35.746Z,991.75
2018-04-14T02:26:35.928Z,991.73
2018-04-14T02:27:36.101Z,991.76
2018-04-14T02:28:36.275Z,991.76
2018-04-14T02:29:36.443Z,991.77
2018-04-14T02:30:36.643Z,991.80
2018-04-14T02:31:36.798Z,991.80
2018-04-14T02:32:36.966Z,991.82
2018-04-14T02:33:37.146Z,991.85
2018-04-14T02:34:37.320Z,991.84
2018-04-14T02:35:37.493Z,991.85
2018-04-14T02:36:37.671Z,991.86
2018-04-14T02:37:37.857Z,991.86
2018-04-14T02:38:38.037Z,991.86
2018-04-14T02:39:38.215Z,991.86
2018-04-14T02:40:38.400Z,991.88
2018-04-14T02:41:38.571Z,991.88
2018-04-14T02:42:38.741Z,991.91
2018-04-14T02:43:38.925Z,991.92
2018-04-14T02:44:39.094Z,991.97
2018-04-14T02:45:39.268Z,991.90
2018-04-14T02:46:39.439Z,991.89
2018-04-14T02:47:39.613Z,991.93
2018-04-14T02:48:39.785Z,991.89
2018-04-14T02:49:39.956Z,991.93
2018-04-14T02:50:40.140Z,991.95
2018-04-14T02:51:40.327Z,991.97
2018-04-14T02:52:40.502Z,991.97
2018-04-14T02:53:40.680Z,992.01
2018-04-14T02:54:40.859Z,991.95
2018-04-14T02:55:41.039Z,991.97
2018-04-14T02:56:41.205Z,992.01
2018-04-14T02:57:41.395Z,992.01
2018-04-14T02:58:41.571Z,992.00
2018-04-14T02:59:41.753Z,991.97
2018-04-14T03:00:41.929Z,992.00
2018-04-14T03:01:42.111Z,991.94
2018-04-14T03:02:42.286Z,991.95
2018-04-14T03:03:42.468Z,991.97
2018-04-14T03:04:42.636Z,992.01
2018-04-14T03:05:42.815Z,992.00
2018-04-14T03:06:42.996Z,992.01
2018-04-14T03:07:43.174Z,992.00
2018-04-14T03:08:43.346Z,992.06
2018-04-14T03:09:43.530Z,992.05
2018-04-14T03:10:43.709Z,992.07
2018-04-14T03:11:43.880Z,992.09
2018-04-14T03:12:44.052Z,992.12
2018-04-14T03:13:44.227Z,992.09
2018-04-14T03:14:44.404Z,992.10
2018-04-14T03:15:44.587Z,992.10
2018-04-14T03:16:44.762Z,992.11
2018-04-14T03:17:44.938Z,992.13
2018-04-14T03:18:45.118Z,992.11
2018-04-14T03:19:45.285Z,992.16
2018-04-14T03:20:45.455Z,992.13
2018-04-14T03:21:45.632Z,992.16
2018-04-14T03:22:45.806Z,992.17
2018-04-14T03:23:45.984Z,992.16
2018-04-14T03:24:46.162Z,992.21
2018-04-14T03:25:46.332Z,992.18
2018-04-14T03:26:46.513Z,992.22
2018-04-14T03:27:46.693Z,992.18
2018-04-14T03:28:46.862Z,992.19
2018-04-14T03:29:47.037Z,992.21
2018-04-14T03:30:47.205Z,992.21
2018-04-14T03:31:47.380Z,992.25
2018-04-14T03:32:47.553Z,992.21
2018-04-14T03:33:47.731Z,992.21
2018-04-14T03:34:47.907Z,992.21
2018-04-14T03:35:48.083Z,992.22
2018-04-14T03:36:48.256Z,992.21
2018-04-14T03:37:48.435Z,992.21
2018-04-14T03:38:48.602Z,992.23
2018-04-14T03:39:48.770Z,992.20
2018-04-14T03:40:48.951Z,992.23
2018-04-14T03:41:49.120Z,992.23
2018-04-14T03:42:49.294Z,992.19
2018-04-14T03:43:49.465Z,992.23
2018-04-14T03:44:49.636Z,992.23
2018-04-14T03:45:49.827Z,992.18
2018-04-14T03:46:49.991Z,992.21
2018-04-14T03:47:50.166Z,992.22
2018-04-14T03:48:50.351Z,992.24
2018-04-14T03:49:50.526Z,992.21
2018-04-14T03:50:50.702Z,992.22
2018-04-14T03:51:50.879Z,992.21
2018-04-14T03:52:51.053Z,992.23
2018-04-14T03:53:51.227Z,992.21
2018-04-14T03:54:51.422Z,992.21
2018-04-14T03:55:51.595Z,992.25
2018-04-14T03:56:51.773Z,992.22
2018-04-14T03:57:51.949Z,992.24
2018-04-14T03:58:52.125Z,992.22
2018-04-14T03:59:52.301Z,992.25
2018-04-14T04:00:52.474Z,992.27
2018-04-14T04:01:52.645Z,992.32
2018-04-14T04:02:52.827Z,992.29
2018-04-14T04:03:53.013Z,992.33
2018-04-14T04:04:53.186Z,992.29
2018-04-14T04:05:53.366Z,992.32
2018-04-14T04:06:53.539Z,992.37
2018-04-14T04:07:53.716Z,992.33
2018-04-14T04:08:53.898Z,992.37
2018-04-14T04:09:54.064Z,992.37
2018-04-14T04:10:54.239Z,992.39
2018-04-14T04:11:54.416Z,992.37
2018-04-14T04:12:54.600Z,992.40
2018-04-14T04:13:54.765Z,992.37
2018-04-14T04:14:54.941Z,992.43
2018-04-14T04:15:55.113Z,992.44
2018-04-14T04:16:55.293Z,992.45
2018-04-14T04:17:55.463Z,992.42
2018-04-14T04:18:55.629Z,992.47
2018-04-14T04:19:55.814Z,992.48
2018-04-14T04:20:55.985Z,992.50
2018-04-14T04:21:56.163Z,992.55
2018-04-14T04:22:56.332Z,992.63
2018-04-14T04:23:56.510Z,992.58
2018-04-14T04:24:56.679Z,992.61
2018-04-14T04:25:56.848Z,992.61
2018-04-14T04:26:57.025Z,992.62
2018-04-14T04:27:57.197Z,992.66
2018-04-14T04:28:57.412Z,992.64
2018-04-14T04:29:57.548Z,992.66
2018-04-14T04:30:57.720Z,992.66
2018-04-14T04:31:57.897Z,992.70
2018-04-14T04:32:58.064Z,992.72
2018-04-14T04:33:58.242Z,992.75
2018-04-14T04:34:58.422Z,992.71
2018-04-14T04:35:58.612Z,992.73
2018-04-14T04:36:58.798Z,992.72
2018-04-14T04:37:58.956Z,992.74
2018-04-14T04:38:59.133Z,992.76
2018-04-14T04:39:59.294Z,992.74
2018-04-14T04:40:59.478Z,992.77
2018-04-14T04:41:59.658Z,992.80
2018-04-14T04:42:59.841Z,992.82
2018-04-14T04:44:00.027Z,992.79
2018-04-14T04:45:00.203Z,992.80
2018-04-14T04:46:00.400Z,992.86
2018-04-14T04:47:00.626Z,992.84
2018-04-14T04:48:00.682Z,992.80
2018-04-14T04:49:00.914Z,992.82
2018-04-14T04:50:01.077Z,992.86
2018-04-14T04:51:01.168Z,992.83
2018-04-14T04:52:01.342Z,992.89
2018-04-14T04:53:01.543Z,992.85
2018-04-14T04:54:01.743Z,992.87
2018-04-14T04:55:01.929Z,992.87
2018-04-14T04:56:02.108Z,992.88
2018-04-14T04:57:02.288Z,992.90
2018-04-14T04:58:02.465Z,992.90
2018-04-14T04:59:02.636Z,992.91
2018-04-14T05:00:02.819Z,992.95
2018-04-14T05:01:02.990Z,992.98
2018-04-14T05:02:03.173Z,992.99
2018-04-14T05:03:03.355Z,993.03
2018-04-14T05:04:03.527Z,993.02
2018-04-14T05:05:03.714Z,993.03
2018-04-14T05:06:03.879Z,993.05
2018-04-14T05:07:04.051Z,993.08
2018-04-14T05:08:04.231Z,993.09
2018-04-14T05:09:04.419Z,993.11
2018-04-14T05:10:04.595Z,993.15
2018-04-14T05:11:04.780Z,993.17
2018-04-14T05:12:05.425Z,993.21
2018-04-14T05:13:05.088Z,993.23
2018-04-14T05:14:05.262Z,993.26
2018-04-14T05:15:05.451Z,993.28
2018-04-14T05:16:05.627Z,993.25
2018-04-14T05:17:05.821Z,993.22
2018-04-14T05:18:05.991Z,993.30
2018-04-14T05:19:06.162Z,993.30
2018-04-14T05:20:06.343Z,993.33
2018-04-14T05:21:06.527Z,993.33
2018-04-14T05:22:06.699Z,993.37
2018-04-14T05:23:06.877Z,993.39
2018-04-14T05:24:07.062Z,993.39
2018-04-14T05:25:07.229Z,993.46
2018-04-14T05:26:07.405Z,993.46
2018-04-14T05:27:07.593Z,993.51
2018-04-14T05:28:07.763Z,993.48
2018-04-14T05:29:07.935Z,993.48
2018-04-14T05:30:08.124Z,993.53
2018-04-14T05:31:08.293Z,993.51
2018-04-14T05:32:08.472Z,993.55
2018-04-14T05:33:08.649Z,993.55
2018-04-14T05:34:08.840Z,993.54
2018-04-14T05:35:09.054Z,993.56
2018-04-14T05:36:09.245Z,993.55
2018-04-14T05:37:09.399Z,993.57
2018-04-14T05:38:09.577Z,993.55
2018-04-14T05:39:09.771Z,993.55
2018-04-14T05:40:09.949Z,993.55
2018-04-14T05:41:10.122Z,993.59
2018-04-14T05:42:10.302Z,993.57
2018-04-14T05:43:10.494Z,993.57
2018-04-14T05:44:10.679Z,993.60
2018-04-14T05:45:10.859Z,993.60
2018-04-14T05:46:11.053Z,993.59
2018-04-14T05:47:11.634Z,993.60
2018-04-14T05:48:12.411Z,993.60
2018-04-14T05:49:11.582Z,993.64
2018-04-14T05:50:11.753Z,993.64
2018-04-14T05:51:11.929Z,993.68
2018-04-14T05:52:12.711Z,993.65
2018-04-14T05:53:13.399Z,993.62
2018-04-14T05:54:12.532Z,993.70
2018-04-14T05:55:12.696Z,993.68
2018-04-14T05:56:12.856Z,993.67
2018-04-14T05:57:13.025Z,993.68
2018-04-14T05:58:13.270Z,993.72
2018-04-14T05:59:13.405Z,993.74
2018-04-14T06:00:13.663Z,993.74
2018-04-14T06:01:13.794Z,993.79
2018-04-14T06:02:13.976Z,993.80
2018-04-14T06:03:14.153Z,993.80
2018-04-14T06:04:14.333Z,993.87
2018-04-14T06:05:14.513Z,993.85
2018-04-14T06:06:15.046Z,993.83
2018-04-14T06:07:14.847Z,993.87
2018-04-14T06:08:15.037Z,993.90
2018-04-14T06:09:15.269Z,993.95
2018-04-14T06:10:15.397Z,994.01
2018-04-14T06:11:15.579Z,994.04
2018-04-14T06:12:15.766Z,994.09
2018-04-14T06:13:15.961Z,994.17
2018-04-14T06:14:16.133Z,994.14
2018-04-14T06:15:16.320Z,994.19
2018-04-14T06:16:16.504Z,994.18
2018-04-14T06:17:16.683Z,994.20
2018-04-14T06:18:16.863Z,994.23
2018-04-14T06:19:17.051Z,994.31
2018-04-14T06:20:17.236Z,994.43
2018-04-14T06:21:17.415Z,994.60
2018-04-14T06:22:17.672Z,994.64
2018-04-14T06:23:17.763Z,994.66
2018-04-14T06:24:17.945Z,994.70
2018-04-14T06:25:18.124Z,994.77
2018-04-14T06:26:18.307Z,994.75
2018-04-14T06:27:18.492Z,994.77
2018-04-14T06:28:18.677Z,994.78
2018-04-14T06:29:18.868Z,994.82
2018-04-14T06:30:19.050Z,994.84
2018-04-14T06:31:19.246Z,994.86
2018-04-14T06:32:19.431Z,994.94
2018-04-14T06:33:19.632Z,994.90
2018-04-14T06:34:19.831Z,994.92
2018-04-14T06:35:20.026Z,994.91
2018-04-14T06:36:20.212Z,994.88
2018-04-14T06:37:20.400Z,994.81
2018-04-14T06:38:20.594Z,994.78
2018-04-14T06:39:20.787Z,994.80
2018-04-14T06:40:20.969Z,994.87
2018-04-14T06:41:21.147Z,994.88
2018-04-14T06:42:21.345Z,994.98
2018-04-14T06:43:21.524Z,994.97
2018-04-14T06:44:21.721Z,995.00
2018-04-14T06:45:21.917Z,995.03
2018-04-14T06:46:22.105Z,995.07
2018-04-14T06:47:22.283Z,995.04
2018-04-14T06:48:22.468Z,995.06
2018-04-14T06:49:22.663Z,995.09
2018-04-14T06:50:22.842Z,995.08
2018-04-14T06:51:23.030Z,995.07
2018-04-14T06:52:23.474Z,995.17
2018-04-14T06:53:23.366Z,995.18
2018-04-14T06:54:23.543Z,995.18
2018-04-14T06:55:23.745Z,995.16
2018-04-14T06:56:23.925Z,995.18
2018-04-14T06:57:24.978Z,995.19
2018-04-14T06:58:24.371Z,995.20
2018-04-14T06:59:24.591Z,995.22
2018-04-14T07:00:25.095Z,995.26
2018-04-14T07:01:24.830Z,995.21
2018-04-14T07:02:25.195Z,995.23
2018-04-14T07:03:25.403Z,995.26
2018-04-14T07:04:25.625Z,995.26
2018-04-14T07:05:25.528Z,995.29
2018-04-14T07:06:25.740Z,995.23
2018-04-14T07:07:25.951Z,995.28
2018-04-14T07:08:27.160Z,995.29
2018-04-14T07:09:26.539Z,995.26
2018-04-14T07:10:26.419Z,995.28
2018-04-14T07:11:26.812Z,995.29
2018-04-14T07:12:26.793Z,995.31
2018-04-14T07:13:27.034Z,995.35
2018-04-14T07:14:27.194Z,995.36
2018-04-14T07:15:27.387Z,995.33
2018-04-14T07:16:27.577Z,995.34
2018-04-14T07:17:27.935Z,995.33
2018-04-14T07:18:28.370Z,995.35
2018-04-14T07:19:28.106Z,995.34
2018-04-14T07:20:28.298Z,995.35
2018-04-14T07:21:28.502Z,995.39
2018-04-14T07:22:28.704Z,995.40
2018-04-14T07:23:28.911Z,995.43
2018-04-14T07:24:29.110Z,995.42
2018-04-14T07:25:29.326Z,995.39
2018-04-14T07:26:29.531Z,995.42
2018-04-14T07:27:29.750Z,995.41
2018-04-14T07:28:30.017Z,995.42
2018-04-14T07:29:30.181Z,995.39
2018-04-14T07:30:30.246Z,995.39
2018-04-14T07:31:30.460Z,995.39
2018-04-14T07:32:30.719Z,995.40
2018-04-14T07:33:30.826Z,995.39
2018-04-14T07:34:31.024Z,995.41
2018-04-14T07:35:31.220Z,995.40
2018-04-14T07:36:33.268Z,995.37
2018-04-14T07:37:31.711Z,995.38
2018-04-14T07:38:31.909Z,995.36
2018-04-14T07:39:31.991Z,995.37
2018-04-14T07:40:32.373Z,995.33
2018-04-14T07:41:32.335Z,995.36
2018-04-14T07:42:32.532Z,995.37
2018-04-14T07:43:33.055Z,995.39
2018-04-14T07:44:32.914Z,995.39
2018-04-14T07:45:33.111Z,995.41
2018-04-14T07:46:33.310Z,995.39
2018-04-14T07:47:33.540Z,995.41
2018-04-14T07:48:33.725Z,995.44
2018-04-14T07:49:33.950Z,995.46
2018-04-14T07:50:34.153Z,995.44
2018-04-14T07:51:34.482Z,995.52
2018-04-14T07:52:34.549Z,995.55
2018-04-14T07:53:34.788Z,995.55
2018-04-14T07:54:35.045Z,995.56
2018-04-14T07:55:35.197Z,995.53
2018-04-14T07:56:35.388Z,995.51
2018-04-14T07:57:35.606Z,995.50
2018-04-14T07:58:35.781Z,995.55
2018-04-14T07:59:35.969Z,995.55
2018-04-14T08:00:36.165Z,995.58
2018-04-14T08:01:36.359Z,995.59
2018-04-14T08:02:36.556Z,995.56
2018-04-14T08:03:36.759Z,995.51
2018-04-14T08:04:37.176Z,995.58
2018-04-14T08:05:37.134Z,995.51
2018-04-14T08:06:37.319Z,995.55
2018-04-14T08:07:37.514Z,995.61
2018-04-14T08:08:37.695Z,995.54
2018-04-14T08:09:37.884Z,995.52
2018-04-14T08:10:38.108Z,995.59
2018-04-14T08:11:38.321Z,995.63
2018-04-14T08:12:38.464Z,995.62
2018-04-14T08:13:38.706Z,995.65
2018-04-14T08:14:38.870Z,995.71
2018-04-14T08:15:39.094Z,995.73
2018-04-14T08:16:39.275Z,995.72
2018-04-14T08:17:39.467Z,995.73
2018-04-14T08:18:39.673Z,995.78
2018-04-14T08:19:39.865Z,995.78
2018-04-14T08:20:40.087Z,995.80
2018-04-14T08:21:40.275Z,995.88
2018-04-14T08:22:40.467Z,995.90
2018-04-14T08:23:40.666Z,995.91
2018-04-14T08:24:40.877Z,995.84
2018-04-14T08:25:41.053Z,995.94
2018-04-14T08:26:41.255Z,995.95
2018-04-14T08:27:41.447Z,995.97
2018-04-14T08:28:41.697Z,995.92
2018-04-14T08:29:41.753Z,995.92
2018-04-14T08:30:41.950Z,995.85
2018-04-14T08:31:42.140Z,995.84
2018-04-14T08:32:42.372Z,995.85
2018-04-14T08:33:42.530Z,995.90
2018-04-14T08:34:42.734Z,995.89
2018-04-14T08:35:42.924Z,995.94
2018-04-14T08:36:43.119Z,995.87
2018-04-14T08:37:43.311Z,995.94
2018-04-14T08:38:43.599Z,995.95
2018-04-14T08:39:43.667Z,995.93
2018-04-14T08:40:43.860Z,995.94
2018-04-14T08:41:44.056Z,995.99
2018-04-14T08:42:44.259Z,995.94
2018-04-14T08:43:44.443Z,995.99
2018-04-14T08:44:44.690Z,996.03
2018-04-14T08:45:44.845Z,996.01
2018-04-14T08:46:45.041Z,996.02
2018-04-14T08:47:45.236Z,995.99
2018-04-14T08:48:45.429Z,995.98
2018-04-14T08:49:48.107Z,996.04
2018-04-14T08:50:45.811Z,995.98
2018-04-14T08:51:46.006Z,995.88
2018-04-14T08:52:46.194Z,995.99
2018-04-14T08:53:46.422Z,996.00
2018-04-14T08:54:46.624Z,995.92
2018-04-14T08:55:46.897Z,995.99
2018-04-14T08:56:46.961Z,995.99
2018-04-14T08:57:47.142Z,995.91
2018-04-14T08:58:47.332Z,995.74
2018-04-14T08:59:47.523Z,995.70
2018-04-14T09:00:47.705Z,995.75
2018-04-14T09:01:47.897Z,995.84
2018-04-14T09:02:48.104Z,995.76
2018-04-14T09:03:48.601Z,995.75
2018-04-14T09:04:48.754Z,995.79
2018-04-14T09:05:48.923Z,995.95
2018-04-14T09:06:49.098Z,996.14
2018-04-14T09:07:49.100Z,996.05
2018-04-14T09:08:49.115Z,995.92
2018-04-14T09:09:49.314Z,996.00
2018-04-14T09:10:49.508Z,995.97
2018-04-14T09:11:49.704Z,995.90
2018-04-14T09:12:49.907Z,995.84
2018-04-14T09:13:50.104Z,996.04
2018-04-14T09:14:50.315Z,996.06
2018-04-14T09:15:50.619Z,996.08
2018-04-14T09:16:50.733Z,996.05
2018-04-14T09:17:50.938Z,996.04
2018-04-14T09:18:51.128Z,996.07
2018-04-14T09:19:51.320Z,996.04
2018-04-14T09:20:51.509Z,995.81
2018-04-14T09:21:51.703Z,995.56
2018-04-14T09:22:51.889Z,995.47
2018-04-14T09:23:52.091Z,995.49
2018-04-14T09:24:52.325Z,995.54
2018-04-14T09:25:52.412Z,995.69
2018-04-14T09:26:52.618Z,995.79
2018-04-14T09:27:52.802Z,995.98
2018-04-14T09:28:52.991Z,995.98
2018-04-14T09:29:53.183Z,995.98
2018-04-14T09:30:53.379Z,995.98
2018-04-14T09:31:53.578Z,995.78
2018-04-14T09:32:53.763Z,995.57
2018-04-14T09:33:53.965Z,995.60
2018-04-14T09:34:54.199Z,995.68
2018-04-14T09:35:54.450Z,995.73
2018-04-14T09:36:54.511Z,995.50
2018-04-14T09:37:54.938Z,995.59
2018-04-14T09:38:55.767Z,995.53
2018-04-14T09:39:55.042Z,995.58
2018-04-14T09:40:55.239Z,995.61
2018-04-14T09:41:55.432Z,995.45
2018-04-14T09:42:55.716Z,995.47
2018-04-14T09:43:55.759Z,995.53
2018-04-14T09:44:55.994Z,995.37
2018-04-14T09:45:56.065Z,995.44
2018-04-14T09:46:56.260Z,995.55
2018-04-14T09:47:56.448Z,995.45
2018-04-14T09:48:56.639Z,995.29
2018-04-14T09:49:56.850Z,995.74
2018-04-14T09:50:57.074Z,995.92
2018-04-14T09:51:57.236Z,995.98
2018-04-14T09:52:57.428Z,995.83
2018-04-14T09:53:57.611Z,995.47
2018-04-14T09:54:57.843Z,995.50
2018-04-14T09:55:58.034Z,995.98
2018-04-14T09:56:58.234Z,995.96
2018-04-14T09:57:58.427Z,996.00
2018-04-14T09:58:58.612Z,995.36
2018-04-14T09:59:58.806Z,996.02
2018-04-14T10:00:58.996Z,996.05
2018-04-14T10:01:59.250Z,996.04
2018-04-14T10:02:59.330Z,995.97
2018-04-14T10:03:59.500Z,995.99
2018-04-14T10:04:59.691Z,996.08
2018-04-14T10:05:59.885Z,996.03
2018-04-14T10:07:00.073Z,996.01
2018-04-14T10:08:00.483Z,996.07
2018-04-14T10:09:00.683Z,995.98
2018-04-14T10:10:00.550Z,995.42
2018-04-14T10:11:00.739Z,995.62
2018-04-14T10:12:00.929Z,995.75
2018-04-14T10:13:01.111Z,995.90
2018-04-14T10:14:01.301Z,995.73
2018-04-14T10:15:01.506Z,995.93
2018-04-14T10:16:01.691Z,996.02
2018-04-14T10:17:01.877Z,995.53
2018-04-14T10:18:02.065Z,995.58
2018-04-14T10:19:02.254Z,995.44
2018-04-14T10:20:02.441Z,995.66
2018-04-14T10:21:02.632Z,995.50
2018-04-14T10:22:02.818Z,995.27
2018-04-14T10:23:03.018Z,995.39
2018-04-14T10:24:03.203Z,995.48
2018-04-14T10:25:03.390Z,995.37
2018-04-14T10:26:03.574Z,995.33
2018-04-14T10:27:03.782Z,995.31
2018-04-14T10:28:03.961Z,995.30
2018-04-14T10:29:04.159Z,995.33
2018-04-14T10:30:04.353Z,995.34
2018-04-14T10:31:04.546Z,995.28
2018-04-14T10:32:04.736Z,995.40
2018-04-14T10:33:04.916Z,995.46
2018-04-14T10:34:05.099Z,995.52
2018-04-14T10:35:05.286Z,995.78
2018-04-14T10:36:05.734Z,995.81
2018-04-14T10:37:05.820Z,995.63
2018-04-14T10:38:06.020Z,995.87
2018-04-14T10:39:06.118Z,995.98
2018-04-14T10:40:06.127Z,996.00
2018-04-14T10:41:06.272Z,995.65
2018-04-14T10:42:06.453Z,995.72
2018-04-14T10:43:06.642Z,995.77
2018-04-14T10:44:06.834Z,995.74
2018-04-14T10:45:07.018Z,995.90
2018-04-14T10:46:07.204Z,995.93
2018-04-14T10:47:07.393Z,995.87
2018-04-14T10:48:07.606Z,995.78
2018-04-14T10:49:07.809Z,995.95
2018-04-14T10:50:08.021Z,995.86
2018-04-14T10:51:08.410Z,995.83
2018-04-14T10:52:08.713Z,995.90
2018-04-14T10:53:08.543Z,995.88
2018-04-14T10:54:08.729Z,995.83
2018-04-14T10:55:08.912Z,995.70
2018-04-14T10:56:09.098Z,995.82
2018-04-14T10:57:09.288Z,995.24
2018-04-14T10:58:09.476Z,995.21
2018-04-14T10:59:09.668Z,995.69
2018-04-14T11:00:09.851Z,995.66
2018-04-14T11:01:10.039Z,995.61
2018-04-14T11:02:10.241Z,995.18
2018-04-14T11:03:10.422Z,995.47
2018-04-14T11:04:10.609Z,995.53
2018-04-14T11:05:10.800Z,995.21
2018-04-14T11:06:11.039Z,995.38
2018-04-14T11:07:11.089Z,995.24
2018-04-14T11:08:11.292Z,995.11
2018-04-14T11:09:11.476Z,995.14
2018-04-14T11:10:11.658Z,995.14
2018-04-14T11:11:11.853Z,995.15
2018-04-14T11:12:12.039Z,995.11
2018-04-14T11:13:12.219Z,995.13
2018-04-14T11:14:12.408Z,995.09
2018-04-14T11:15:12.649Z,995.12
2018-04-14T11:16:12.786Z,995.10
2018-04-14T11:17:12.976Z,995.10
2018-04-14T11:18:13.187Z,995.12
2018-04-14T11:19:13.371Z,995.10
2018-04-14T11:20:13.560Z,995.10
2018-04-14T11:21:15.885Z,995.10
2018-04-14T11:22:13.914Z,995.19
2018-04-14T11:23:14.098Z,995.14
2018-04-14T11:24:14.283Z,994.96
2018-04-14T11:25:14.463Z,994.95
2018-04-14T11:26:14.652Z,995.09
2018-04-14T11:27:14.872Z,994.92
2018-04-14T11:28:15.065Z,995.06
2018-04-14T11:29:15.241Z,995.07
2018-04-14T11:30:15.439Z,995.04
2018-04-14T11:31:15.641Z,995.04
2018-04-14T11:32:15.821Z,994.84
2018-04-14T11:33:16.018Z,994.87
2018-04-14T11:34:16.200Z,994.90
2018-04-14T11:35:16.388Z,994.83
2018-04-14T11:36:16.585Z,994.83
2018-04-14T11:37:16.763Z,994.97
2018-04-14T11:38:16.945Z,994.96
2018-04-14T11:39:17.131Z,994.90
2018-04-14T11:40:17.318Z,994.93
2018-04-14T11:41:17.532Z,994.91
2018-04-14T11:42:17.706Z,994.88
2018-04-14T11:43:17.945Z,994.90
2018-04-14T11:44:18.975Z,994.91
2018-04-14T11:45:18.331Z,994.96
2018-04-14T11:46:18.509Z,994.93
2018-04-14T11:47:18.691Z,994.97
2018-04-14T11:48:18.879Z,994.94
2018-04-14T11:49:19.057Z,994.90
2018-04-14T11:50:19.239Z,994.95
2018-04-14T11:51:19.427Z,994.94
2018-04-14T11:52:19.939Z,995.00
2018-04-14T11:53:19.741Z,994.93
2018-04-14T11:54:19.924Z,994.96
2018-04-14T11:55:20.154Z,995.09
2018-04-14T11:56:20.344Z,994.97
2018-04-14T11:57:20.634Z,994.99
2018-04-14T11:58:20.695Z,995.04
2018-04-14T11:59:20.880Z,995.00
2018-04-14T12:00:21.075Z,995.01
2018-04-14T12:01:21.267Z,995.07
2018-04-14T12:02:21.461Z,995.03
2018-04-14T12:03:21.632Z,995.04
2018-04-14T12:04:21.811Z,995.06
2018-04-14T12:05:21.995Z,995.07
2018-04-14T12:06:22.179Z,995.09
2018-04-14T12:07:22.367Z,995.12
2018-04-14T12:08:22.550Z,995.12
2018-04-14T12:09:22.732Z,995.07
2018-04-14T12:10:22.938Z,995.06
2018-04-14T12:11:23.123Z,995.07
2018-04-14T12:12:23.311Z,994.99
2018-04-14T12:13:23.501Z,994.97
2018-04-14T12:14:23.677Z,994.99
2018-04-14T12:15:23.869Z,994.98
2018-04-14T12:16:24.050Z,995.03
2018-04-14T12:17:24.240Z,995.02
2018-04-14T12:18:24.418Z,995.01
2018-04-14T12:19:24.602Z,995.02
2018-04-14T12:20:24.792Z,995.15
2018-04-14T12:21:24.967Z,995.08
2018-04-14T12:22:25.153Z,995.14
2018-04-14T12:23:25.352Z,995.11
2018-04-14T12:24:25.526Z,995.13
2018-04-14T12:25:25.711Z,995.14
2018-04-14T12:26:25.897Z,995.11
2018-04-14T12:27:26.090Z,995.18
2018-04-14T12:28:26.291Z,995.17
2018-04-14T12:29:26.455Z,995.13
2018-04-14T12:30:26.635Z,995.22